Time,TemperatureF,DewpointF,PressureIn,WindDirection,WindDirectionDegrees,WindSpeedMPH,WindSpeedGustMPH,Humidity,HourlyPrecipIn,Conditions,Clouds,dailyrainin,SoftwareType,DateUTC
2013-03-09 00:04:00,36.0,26.0,30.39,SSW,205,0.0,1.0,66,0.00,,,0.00,weatherlink.com 1.10,2013-03-09 05:04:00,
2013-03-09 00:19:00,35.7,26.0,30.39,SSW,205,0.0,1.0,67,0.00,,,0.00,weatherlink.com 1.10,2013-03-09 05:19:00,
2013-03-09 00:34:00,34.7,25.0,30.39,SSW,205,0.0,0.0,69,0.00,,,0.00,weatherlink.com 1.10,2013-03-09 05:34:00,
2013-03-09 00:49:00,32.9,25.0,30.39,SSW,207,0.0,1.0,73,0.00,,,0.00,weatherlink.com 1.10,2013-03-09 05:49:00,
2013-03-09 01:04:00,32.4,25.0,30.40,West,263,0.0,1.0,75,0.00,,,0.00,weatherlink.com 1.10,2013-03-09 06:04:00,
2013-03-09 01:19:00,31.6,25.0,30.39,WSW,238,1.0,1.0,76,0.00,,,0.00,weatherlink.com 1.10,2013-03-09 06:19:00,
2013-03-09 01:34:00,32.2,25.0,30.39,SSW,204,1.0,2.0,74,0.00,,,0.00,weatherlink.com 1.10,2013-03-09 06:34:00,
2013-03-09 01:49:00,32.8,25.0,30.39,SSW,204,0.0,1.0,72,0.00,,,0.00,weatherlink.com 1.10,2013-03-09 06:49:00,
2013-03-09 02:04:00,33.2,25.0,30.39,SSW,200,1.0,1.0,71,0.00,,,0.00,weatherlink.com 1.10,2013-03-09 07:04:00,
2013-03-09 02:19:00,33.3,25.0,30.38,SSW,200,0.0,1.0,71,0.00,,,0.00,weatherlink.com 1.10,2013-03-09 07:19:00,
2013-03-09 02:34:00,33.3,24.0,30.37,SSW,200,0.0,1.0,70,0.00,,,0.00,weatherlink.com 1.10,2013-03-09 07:34:00,
2013-03-09 02:49:00,32.7,24.0,30.37,SSW,200,0.0,0.0,71,0.00,,,0.00,weatherlink.com 1.10,2013-03-09 07:49:00,
2013-03-09 03:04:00,31.8,24.0,30.37,SSW,200,0.0,0.0,73,0.00,,,0.00,weatherlink.com 1.10,2013-03-09 08:04:00,
2013-03-09 03:19:00,30.7,24.0,30.36,SSW,200,0.0,1.0,76,0.00,,,0.00,weatherlink.com 1.10,2013-03-09 08:19:00,
2013-03-09 03:34:00,31.0,24.0,30.36,SSW,200,0.0,1.0,74,0.00,,,0.00,weatherlink.com 1.10,2013-03-09 08:34:00,
2013-03-09 03:49:00,31.1,24.0,30.36,SSW,200,0.0,0.0,74,0.00,,,0.00,weatherlink.com 1.10,2013-03-09 08:49:00,
2013-03-09 04:04:00,30.5,23.0,30.36,SSW,200,0.0,0.0,75,0.00,,,0.00,weatherlink.com 1.10,2013-03-09 09:04:00,
2013-03-09 04:19:00,31.0,24.0,30.36,SSW,200,0.0,1.0,74,0.00,,,0.00,weatherlink.com 1.10,2013-03-09 09:19:00,
2013-03-09 04:34:00,30.9,24.0,30.35,SSW,199,0.0,1.0,75,0.00,,,0.00,weatherlink.com 1.10,2013-03-09 09:34:00,
2013-03-09 04:49:00,30.2,24.0,30.36,SSW,200,0.0,0.0,77,0.00,,,0.00,weatherlink.com 1.10,2013-03-09 09:49:00,
2013-03-09 05:04:00,29.9,23.0,30.36,SSW,200,0.0,0.0,76,0.00,,,0.00,weatherlink.com 1.10,2013-03-09 10:04:00,
2013-03-09 05:20:00,29.7,23.0,30.36,SSW,200,0.0,0.0,77,0.00,,,0.00,weatherlink.com 1.10,2013-03-09 10:20:00,
2013-03-09 05:34:00,29.9,24.0,30.36,SSW,200,0.0,1.0,79,0.00,,,0.00,weatherlink.com 1.10,2013-03-09 10:34:00,
2013-03-09 05:50:00,29.5,23.0,30.37,SSW,199,0.0,1.0,78,0.00,,,0.00,weatherlink.com 1.10,2013-03-09 10:50:00,
2013-03-09 06:05:00,29.7,23.0,30.36,SSW,198,0.0,1.0,77,0.00,,,0.00,weatherlink.com 1.10,2013-03-09 11:05:00,
2013-03-09 06:20:00,29.3,23.0,30.36,SSW,198,0.0,0.0,77,0.00,,,0.00,weatherlink.com 1.10,2013-03-09 11:20:00,
2013-03-09 06:35:00,28.9,23.0,30.37,SSW,198,0.0,1.0,80,0.00,,,0.00,weatherlink.com 1.10,2013-03-09 11:35:00,
2013-03-09 06:50:00,28.5,23.0,30.38,SSW,198,0.0,0.0,81,0.00,,,0.00,weatherlink.com 1.10,2013-03-09 11:50:00,
2013-03-09 07:06:00,28.4,23.3,30.38,SSW,198,0.0,0.0,81,0.00,,,0.00,Wunderground v.1.15,2013-03-09 12:06:00,
2013-03-09 07:11:00,28.7,23.6,30.38,SSW,198,0.0,1.0,81,0.00,,,0.00,Wunderground v.1.15,2013-03-09 12:11:00,
2013-03-09 07:17:00,28.9,24.1,30.39,SSW,198,0.0,1.0,82,0.00,,,0.00,Wunderground v.1.15,2013-03-09 12:17:00,
2013-03-09 07:23:00,28.9,23.8,30.39,SSW,198,0.0,0.0,81,0.00,,,0.00,Wunderground v.1.15,2013-03-09 12:23:00,
2013-03-09 07:29:00,29.1,24.3,30.39,SSW,198,0.0,0.0,82,0.00,,,0.00,Wunderground v.1.15,2013-03-09 12:29:00,
2013-03-09 07:34:00,29.2,24.4,30.39,SSW,198,0.0,0.0,82,0.00,,,0.00,Wunderground v.1.15,2013-03-09 12:34:00,
2013-03-09 07:40:00,29.2,24.4,30.39,SSW,198,0.0,0.0,82,0.00,,,0.00,Wunderground v.1.15,2013-03-09 12:40:00,
2013-03-09 07:46:00,29.2,23.8,30.39,SSW,198,0.0,0.0,80,0.00,,,0.00,Wunderground v.1.15,2013-03-09 12:46:00,
2013-03-09 07:51:00,29.2,24.0,30.39,SSW,198,0.0,0.0,80,0.00,,,0.00,weatherlink.com 1.10,2013-03-09 12:51:00,
2013-03-09 07:57:00,29.0,24.2,30.40,SSW,198,0.0,0.0,82,0.00,,,0.00,Wunderground v.1.15,2013-03-09 12:57:00,
2013-03-09 08:03:00,29.0,24.5,30.40,SSW,199,0.0,0.0,83,0.00,,,0.00,Wunderground v.1.15,2013-03-09 13:03:00,
2013-03-09 08:08:00,29.1,24.6,30.40,SSW,199,0.0,0.0,83,0.00,,,0.00,Wunderground v.1.15,2013-03-09 13:08:00,
2013-03-09 08:14:00,29.3,24.8,30.41,SSW,198,0.0,0.0,83,0.00,,,0.00,Wunderground v.1.15,2013-03-09 13:14:00,
2013-03-09 08:20:00,29.3,24.5,30.41,SSW,198,0.0,0.0,82,0.00,,,0.00,Wunderground v.1.15,2013-03-09 13:20:00,
2013-03-09 08:25:00,29.6,24.8,30.41,SSW,198,0.0,0.0,82,0.00,,,0.00,Wunderground v.1.15,2013-03-09 13:25:00,
2013-03-09 08:30:00,30.2,25.7,30.41,SSW,199,0.0,0.0,83,0.00,,,0.00,Wunderground v.1.15,2013-03-09 13:30:00,
2013-03-09 08:36:00,31.1,26.2,30.41,SSW,199,0.0,0.0,82,0.00,,,0.00,Wunderground v.1.15,2013-03-09 13:36:00,
2013-03-09 08:42:00,31.7,25.9,30.41,SSW,198,0.0,0.0,79,0.00,,,0.00,Wunderground v.1.15,2013-03-09 13:42:00,
2013-03-09 08:48:00,32.2,26.4,30.41,SSW,198,0.0,0.0,79,0.00,,,0.00,Wunderground v.1.15,2013-03-09 13:48:00,
2013-03-09 08:54:00,32.8,25.7,30.41,SSW,198,0.0,0.0,75,0.00,,,0.00,Wunderground v.1.15,2013-03-09 13:54:00,
2013-03-09 08:59:00,33.3,26.5,30.41,SSW,198,0.0,0.0,76,0.00,,,0.00,Wunderground v.1.15,2013-03-09 13:59:00,
2013-03-09 09:04:00,33.5,26.4,30.41,SSW,198,0.0,0.0,75,0.00,,,0.00,Wunderground v.1.15,2013-03-09 14:04:00,
2013-03-09 09:10:00,33.7,25.6,30.41,SSW,195,0.0,0.0,72,0.00,,,0.00,Wunderground v.1.15,2013-03-09 14:10:00,
2013-03-09 09:16:00,34.2,26.4,30.41,South,186,0.0,0.0,73,0.00,,,0.00,Wunderground v.1.15,2013-03-09 14:16:00,
2013-03-09 09:21:00,34.9,27.0,30.40,ESE,103,0.0,1.0,72,0.00,,,0.00,weatherlink.com 1.10,2013-03-09 14:21:00,
2013-03-09 09:27:00,35.6,27.1,30.40,ENE,63,0.0,0.0,71,0.00,,,0.00,Wunderground v.1.15,2013-03-09 14:27:00,
2013-03-09 09:32:00,36.1,27.6,30.40,NE,35,0.0,0.0,71,0.00,,,0.00,Wunderground v.1.15,2013-03-09 14:32:00,
2013-03-09 09:38:00,36.7,28.5,30.40,NE,35,0.0,0.0,72,0.00,,,0.00,Wunderground v.1.15,2013-03-09 14:38:00,
2013-03-09 09:44:00,36.9,28.0,30.40,ENE,58,0.0,1.0,70,0.00,,,0.00,Wunderground v.1.15,2013-03-09 14:44:00,
2013-03-09 09:50:00,37.5,28.2,30.40,ENE,58,0.0,1.0,69,0.00,,,0.00,Wunderground v.1.15,2013-03-09 14:50:00,
2013-03-09 09:56:00,38.4,28.0,30.39,NE,39,0.0,1.0,66,0.00,,,0.00,Wunderground v.1.15,2013-03-09 14:56:00,
2013-03-09 10:01:00,38.8,28.8,30.39,ENE,58,1.0,1.0,67,0.00,,,0.00,Wunderground v.1.15,2013-03-09 15:01:00,
2013-03-09 10:06:00,39.4,29.3,30.39,ENE,59,1.0,1.0,67,0.00,,,0.00,Wunderground v.1.15,2013-03-09 15:06:00,
2013-03-09 10:12:00,40.0,28.8,30.39,ENE,72,1.0,1.0,64,0.00,,,0.00,Wunderground v.1.15,2013-03-09 15:12:00,
2013-03-09 10:17:00,40.6,29.7,30.39,East,80,1.0,1.0,65,0.00,,,0.00,Wunderground v.1.15,2013-03-09 15:17:00,
2013-03-09 10:22:00,41.3,29.3,30.39,ENE,78,0.0,1.0,62,0.00,,,0.00,Wunderground v.1.15,2013-03-09 15:22:00,
2013-03-09 10:28:00,42.0,28.3,30.39,NE,46,1.0,2.0,58,0.00,,,0.00,Wunderground v.1.15,2013-03-09 15:28:00,
2013-03-09 10:33:00,42.5,27.9,30.39,NE,55,1.0,1.0,56,0.00,,,0.00,Wunderground v.1.15,2013-03-09 15:33:00,
2013-03-09 10:39:00,43.7,28.6,30.38,ENE,70,1.0,1.0,55,0.00,,,0.00,Wunderground v.1.15,2013-03-09 15:39:00,
2013-03-09 10:45:00,44.5,28.0,30.38,North,1,1.0,2.0,52,0.00,,,0.00,Wunderground v.1.15,2013-03-09 15:45:00,
2013-03-09 10:51:00,45.6,28.5,30.38,NNE,32,1.0,2.0,51,0.00,,,0.00,Wunderground v.1.15,2013-03-09 15:51:00,
2013-03-09 10:57:00,46.2,29.1,30.38,North,9,1.0,2.0,51,0.00,,,0.00,Wunderground v.1.15,2013-03-09 15:57:00,
2013-03-09 11:03:00,46.9,28.7,30.38,NNW,337,1.0,2.0,49,0.00,,,0.00,Wunderground v.1.15,2013-03-09 16:03:00,
2013-03-09 11:09:00,47.4,28.0,30.38,NW,319,1.0,4.0,48,0.00,,,0.00,weatherlink.com 1.10,2013-03-09 16:09:00,
2013-03-09 11:14:00,47.6,29.9,30.38,NNE,13,2.0,2.0,50,0.00,,,0.00,Wunderground v.1.15,2013-03-09 16:14:00,
2013-03-09 11:19:00,48.4,30.6,30.38,NNW,330,1.0,2.0,50,0.00,,,0.00,Wunderground v.1.15,2013-03-09 16:19:00,
2013-03-09 11:25:00,49.1,30.7,30.38,NNW,345,1.0,2.0,49,0.00,,,0.00,Wunderground v.1.15,2013-03-09 16:25:00,
2013-03-09 11:31:00,49.7,31.3,30.37,North,11,1.0,1.0,49,0.00,,,0.00,Wunderground v.1.15,2013-03-09 16:31:00,
2013-03-09 11:37:00,50.4,30.4,30.37,NNE,18,1.0,2.0,46,0.00,,,0.00,Wunderground v.1.15,2013-03-09 16:37:00,
2013-03-09 11:42:00,50.7,30.1,30.37,NNW,330,1.0,3.0,45,0.00,,,0.00,Wunderground v.1.15,2013-03-09 16:42:00,
2013-03-09 11:47:00,51.0,29.8,30.36,North,350,2.0,3.0,44,0.00,,,0.00,Wunderground v.1.15,2013-03-09 16:47:00,
2013-03-09 11:53:00,51.3,29.5,30.36,NNW,328,2.0,3.0,43,0.00,,,0.00,Wunderground v.1.15,2013-03-09 16:53:00,
2013-03-09 11:58:00,51.5,29.7,30.36,North,5,2.0,3.0,43,0.00,,,0.00,Wunderground v.1.15,2013-03-09 16:58:00,
2013-03-09 12:04:00,52.0,29.6,30.36,North,354,2.0,2.0,42,0.00,,,0.00,Wunderground v.1.15,2013-03-09 17:04:00,
2013-03-09 12:09:00,52.5,29.0,30.36,North,349,2.0,4.0,41,0.00,,,0.00,weatherlink.com 1.10,2013-03-09 17:09:00,
2013-03-09 12:15:00,52.9,28.6,30.35,North,350,2.0,3.0,39,0.00,,,0.00,Wunderground v.1.15,2013-03-09 17:15:00,
2013-03-09 12:20:00,53.3,29.6,30.35,NNW,327,2.0,4.0,40,0.00,,,0.00,Wunderground v.1.15,2013-03-09 17:20:00,
2013-03-09 12:26:00,53.1,28.8,30.35,North,5,3.0,4.0,39,0.00,,,0.00,Wunderground v.1.15,2013-03-09 17:26:00,
2013-03-09 12:32:00,53.4,27.8,30.35,East,84,2.0,3.0,37,0.00,,,0.00,Wunderground v.1.15,2013-03-09 17:32:00,
2013-03-09 12:38:00,54.0,27.6,30.35,NNW,337,2.0,3.0,36,0.00,,,0.00,Wunderground v.1.15,2013-03-09 17:38:00,
2013-03-09 12:44:00,54.0,26.9,30.35,North,349,2.0,3.0,35,0.00,,,0.00,Wunderground v.1.15,2013-03-09 17:44:00,
2013-03-09 12:49:00,54.3,27.2,30.35,NNW,328,2.0,3.0,35,0.00,,,0.00,Wunderground v.1.15,2013-03-09 17:49:00,
2013-03-09 12:55:00,54.6,26.8,30.34,SSW,204,2.0,3.0,34,0.00,,,0.00,Wunderground v.1.15,2013-03-09 17:55:00,
2013-03-09 13:00:00,55.0,27.1,30.34,North,349,2.0,4.0,34,0.00,,,0.00,Wunderground v.1.15,2013-03-09 18:00:00,
2013-03-09 13:06:00,55.2,26.6,30.34,North,5,2.0,4.0,33,0.00,,,0.00,Wunderground v.1.15,2013-03-09 18:06:00,
2013-03-09 13:11:00,55.5,26.8,30.34,NNW,345,2.0,2.0,33,0.00,,,0.00,Wunderground v.1.15,2013-03-09 18:11:00,
2013-03-09 13:17:00,56.3,28.3,30.33,East,85,1.0,3.0,34,0.00,,,0.00,Wunderground v.1.15,2013-03-09 18:17:00,
2013-03-09 13:22:00,56.4,26.9,30.33,NW,321,2.0,2.0,32,0.00,,,0.00,Wunderground v.1.15,2013-03-09 18:22:00,
2013-03-09 13:28:00,56.5,27.7,30.33,North,349,2.0,4.0,33,0.00,,,0.00,Wunderground v.1.15,2013-03-09 18:28:00,
2013-03-09 13:33:00,56.8,27.2,30.32,NE,55,2.0,2.0,32,0.00,,,0.00,Wunderground v.1.15,2013-03-09 18:33:00,
2013-03-09 13:38:00,57.0,26.6,30.32,NNW,340,1.0,2.0,31,0.00,,,0.00,Wunderground v.1.15,2013-03-09 18:38:00,
2013-03-09 13:44:00,57.2,26.8,30.31,NNE,20,2.0,6.0,31,0.00,,,0.00,Wunderground v.1.15,2013-03-09 18:44:00,
2013-03-09 13:50:00,57.8,27.3,30.31,NW,322,3.0,4.0,31,0.00,,,0.00,Wunderground v.1.15,2013-03-09 18:50:00,
2013-03-09 13:56:00,57.8,26.5,30.30,North,359,2.0,4.0,30,0.00,,,0.00,Wunderground v.1.15,2013-03-09 18:56:00,
2013-03-09 14:01:00,58.0,25.9,30.30,NNE,13,3.0,3.0,29,0.00,,,0.00,Wunderground v.1.15,2013-03-09 19:01:00,
2013-03-09 14:07:00,58.3,26.1,30.30,NNW,337,2.0,4.0,29,0.00,,,0.00,Wunderground v.1.15,2013-03-09 19:07:00,
2013-03-09 14:12:00,58.3,25.3,30.29,NNW,332,2.0,2.0,28,0.00,,,0.00,Wunderground v.1.15,2013-03-09 19:12:00,
2013-03-09 14:18:00,58.6,26.4,30.29,ESE,120,1.0,2.0,29,0.00,,,0.00,Wunderground v.1.15,2013-03-09 19:18:00,
2013-03-09 14:24:00,59.0,28.4,30.29,NNW,328,1.0,2.0,31,0.00,,,0.00,Wunderground v.1.15,2013-03-09 19:24:00,
2013-03-09 14:30:00,59.4,26.2,30.28,East,97,1.0,1.0,28,0.00,,,0.00,Wunderground v.1.15,2013-03-09 19:30:00,
2013-03-09 14:36:00,59.8,22.9,30.28,SSW,205,1.0,3.0,24,0.00,,,0.00,Wunderground v.1.15,2013-03-09 19:36:00,
2013-03-09 14:41:00,59.8,21.9,30.28,ESE,120,1.0,3.0,23,0.00,,,0.00,Wunderground v.1.15,2013-03-09 19:41:00,
2013-03-09 14:47:00,60.2,23.2,30.27,SW,222,1.0,3.0,24,0.00,,,0.00,Wunderground v.1.15,2013-03-09 19:47:00,
2013-03-09 14:53:00,60.3,23.3,30.27,SSW,211,2.0,4.0,24,0.00,,,0.00,Wunderground v.1.15,2013-03-09 19:53:00,
2013-03-09 14:58:00,60.3,22.3,30.27,NE,49,1.0,4.0,23,0.00,,,0.00,Wunderground v.1.15,2013-03-09 19:58:00,
2013-03-09 15:04:00,60.5,22.5,30.27,SSE,165,1.0,3.0,23,0.00,,,0.00,Wunderground v.1.15,2013-03-09 20:04:00,
2013-03-09 15:10:00,60.5,22.5,30.27,South,169,2.0,2.0,23,0.00,,,0.00,Wunderground v.1.15,2013-03-09 20:10:00,
2013-03-09 15:16:00,60.4,21.3,30.27,West,262,2.0,2.0,22,0.00,,,0.00,Wunderground v.1.15,2013-03-09 20:16:00,
2013-03-09 15:21:00,60.4,21.3,30.27,WSW,240,1.0,2.0,22,0.00,,,0.00,Wunderground v.1.15,2013-03-09 20:21:00,
2013-03-09 15:27:00,60.5,20.3,30.27,South,179,1.0,4.0,21,0.00,,,0.00,Wunderground v.1.15,2013-03-09 20:27:00,
2013-03-09 15:32:00,60.7,21.6,30.26,South,180,0.0,1.0,22,0.00,,,0.00,Wunderground v.1.15,2013-03-09 20:32:00,
2013-03-09 15:38:00,60.8,22.7,30.26,SSW,198,0.0,4.0,23,0.00,,,0.00,Wunderground v.1.15,2013-03-09 20:38:00,
2013-03-09 15:44:00,60.9,22.8,30.27,East,101,2.0,5.0,23,0.00,,,0.00,Wunderground v.1.15,2013-03-09 20:44:00,
2013-03-09 15:49:00,60.9,23.8,30.26,WNW,303,2.0,5.0,24,0.00,,,0.00,Wunderground v.1.15,2013-03-09 20:49:00,
2013-03-09 15:54:00,60.8,23.7,30.26,WNW,290,1.0,5.0,24,0.00,,,0.00,Wunderground v.1.15,2013-03-09 20:54:00,
2013-03-09 15:59:00,60.7,24.6,30.26,SSW,205,1.0,5.0,25,0.00,,,0.00,Wunderground v.1.15,2013-03-09 20:59:00,
2013-03-09 16:05:00,60.7,24.6,30.26,SW,234,1.0,2.0,25,0.00,,,0.00,Wunderground v.1.15,2013-03-09 21:05:00,
2013-03-09 16:11:00,60.7,24.6,30.26,SE,129,1.0,1.0,25,0.00,,,0.00,Wunderground v.1.15,2013-03-09 21:11:00,
2013-03-09 16:17:00,60.6,25.5,30.26,SW,224,1.0,2.0,26,0.00,,,0.00,Wunderground v.1.15,2013-03-09 21:17:00,
2013-03-09 16:22:00,60.6,25.5,30.26,ESE,113,1.0,2.0,26,0.00,,,0.00,Wunderground v.1.15,2013-03-09 21:22:00,
2013-03-09 16:28:00,60.7,24.6,30.26,NE,46,1.0,5.0,25,0.00,,,0.00,Wunderground v.1.15,2013-03-09 21:28:00,
2013-03-09 16:33:00,60.5,25.4,30.26,WSW,246,2.0,2.0,26,0.00,,,0.00,Wunderground v.1.15,2013-03-09 21:33:00,
2013-03-09 16:39:00,60.4,24.4,30.26,WSW,238,1.0,3.0,25,0.00,,,0.00,Wunderground v.1.15,2013-03-09 21:39:00,
2013-03-09 16:45:00,60.3,25.2,30.26,South,171,1.0,5.0,26,0.00,,,0.00,Wunderground v.1.15,2013-03-09 21:45:00,
2013-03-09 16:50:00,60.3,26.1,30.26,NNE,31,2.0,4.0,27,0.00,,,0.00,Wunderground v.1.15,2013-03-09 21:50:00,
2013-03-09 16:56:00,60.2,26.1,30.26,SE,138,2.0,5.0,27,0.00,,,0.00,Wunderground v.1.15,2013-03-09 21:56:00,
2013-03-09 17:01:00,60.1,26.0,30.26,SE,132,2.0,3.0,27,0.00,,,0.00,Wunderground v.1.15,2013-03-09 22:01:00,
2013-03-09 17:07:00,59.8,26.6,30.26,SSE,168,3.0,3.0,28,0.00,,,0.00,Wunderground v.1.15,2013-03-09 22:07:00,
2013-03-09 17:12:00,59.7,26.5,30.26,ESE,105,3.0,3.0,28,0.00,,,0.00,Wunderground v.1.15,2013-03-09 22:12:00,
2013-03-09 17:18:00,59.4,27.9,30.26,SE,145,3.0,5.0,30,0.00,,,0.00,Wunderground v.1.15,2013-03-09 22:18:00,
2013-03-09 17:24:00,59.1,27.7,30.26,SSE,148,3.0,6.0,30,0.00,,,0.00,Wunderground v.1.15,2013-03-09 22:24:00,
2013-03-09 17:29:00,59.0,28.4,30.26,SSW,197,3.0,7.0,31,0.00,,,0.00,Wunderground v.1.15,2013-03-09 22:29:00,
2013-03-09 17:35:00,58.8,28.2,30.26,South,174,4.0,7.0,31,0.00,,,0.00,Wunderground v.1.15,2013-03-09 22:35:00,
2013-03-09 17:40:00,58.5,28.7,30.25,SSW,207,4.0,8.0,32,0.00,,,0.00,Wunderground v.1.15,2013-03-09 22:40:00,
2013-03-09 17:46:00,58.2,28.5,30.25,WSW,248,5.0,9.0,32,0.00,,,0.00,Wunderground v.1.15,2013-03-09 22:46:00,
2013-03-09 17:51:00,57.8,28.1,30.25,SSW,200,5.0,8.0,32,0.00,,,0.00,Wunderground v.1.15,2013-03-09 22:51:00,
2013-03-09 17:57:00,57.6,28.7,30.26,South,176,5.0,10.0,33,0.00,,,0.00,Wunderground v.1.15,2013-03-09 22:57:00,
2013-03-09 18:02:00,57.5,28.6,30.26,SE,144,6.0,8.0,33,0.00,,,0.00,Wunderground v.1.15,2013-03-09 23:02:00,
2013-03-09 18:08:00,57.1,28.2,30.26,South,190,6.0,8.0,33,0.00,,,0.00,Wunderground v.1.15,2013-03-09 23:08:00,
2013-03-09 18:13:00,56.9,29.0,30.26,SSW,193,2.0,16.0,34,0.00,,,0.00,weatherlink.com 1.10,2013-03-09 23:13:00,
2013-03-09 18:19:00,56.5,29.1,30.26,SSE,155,6.0,9.0,35,0.00,,,0.00,Wunderground v.1.15,2013-03-09 23:19:00,
2013-03-09 18:25:00,56.2,29.6,30.26,West,266,5.0,9.0,36,0.00,,,0.00,Wunderground v.1.15,2013-03-09 23:25:00,
2013-03-09 18:31:00,55.9,29.3,30.26,SSE,165,5.0,9.0,36,0.00,,,0.00,Wunderground v.1.15,2013-03-09 23:31:00,
2013-03-09 18:37:00,55.9,29.3,30.26,SSW,208,5.0,9.0,36,0.00,,,0.00,Wunderground v.1.15,2013-03-09 23:37:00,
2013-03-09 18:42:00,55.7,29.8,30.26,SSE,160,6.0,17.0,37,0.00,,,0.00,Wunderground v.1.15,2013-03-09 23:42:00,
2013-03-09 18:48:00,55.6,29.0,30.26,SW,217,7.0,17.0,36,0.00,,,0.00,Wunderground v.1.15,2013-03-09 23:48:00,
2013-03-09 18:53:00,55.3,29.4,30.26,South,169,6.0,14.0,37,0.00,,,0.00,Wunderground v.1.15,2013-03-09 23:53:00,
2013-03-09 18:59:00,55.2,29.4,30.26,SSE,155,5.0,14.0,37,0.00,,,0.00,Wunderground v.1.15,2013-03-09 23:59:00,
2013-03-09 19:05:00,55.1,29.3,30.26,SSE,163,6.0,9.0,37,0.00,,,0.00,Wunderground v.1.15,2013-03-10 00:05:00,
2013-03-09 19:11:00,55.1,29.3,30.26,SSE,167,6.0,8.0,37,0.00,,,0.00,Wunderground v.1.15,2013-03-10 00:11:00,
2013-03-09 19:16:00,55.0,29.2,30.26,South,169,6.0,8.0,37,0.00,,,0.00,Wunderground v.1.15,2013-03-10 00:16:00,
2013-03-09 19:21:00,54.9,29.7,30.26,SSW,193,6.0,6.0,38,0.00,,,0.00,Wunderground v.1.15,2013-03-10 00:21:00,
2013-03-09 19:27:00,54.6,29.5,30.26,SSE,156,5.0,10.0,38,0.00,,,0.00,Wunderground v.1.15,2013-03-10 00:27:00,
2013-03-09 19:33:00,54.6,29.5,30.27,SE,144,5.0,7.0,38,0.00,,,0.00,Wunderground v.1.15,2013-03-10 00:33:00,
2013-03-09 19:38:00,54.4,29.3,30.27,SSW,194,5.0,7.0,38,0.00,,,0.00,Wunderground v.1.15,2013-03-10 00:38:00,
2013-03-09 19:44:00,54.2,29.8,30.27,SSW,210,4.0,14.0,39,0.00,,,0.00,Wunderground v.1.15,2013-03-10 00:44:00,
2013-03-09 19:49:00,54.2,30.4,30.26,SSW,194,4.0,14.0,40,0.00,,,0.00,Wunderground v.1.15,2013-03-10 00:49:00,
2013-03-09 19:55:00,54.1,29.0,30.26,SSE,166,6.0,14.0,38,0.00,,,0.00,Wunderground v.1.15,2013-03-10 00:55:00,
2013-03-09 20:00:00,54.0,29.6,30.26,SSE,157,6.0,17.0,39,0.00,,,0.00,Wunderground v.1.15,2013-03-10 01:00:00,
2013-03-09 20:06:00,53.8,30.0,30.26,South,191,5.0,17.0,40,0.00,,,0.00,Wunderground v.1.15,2013-03-10 01:06:00,
2013-03-09 20:11:00,53.6,29.2,30.26,ESE,110,3.0,4.0,39,0.00,,,0.00,Wunderground v.1.15,2013-03-10 01:11:00,
2013-03-09 20:17:00,53.3,28.9,30.26,West,259,2.0,4.0,39,0.00,,,0.00,Wunderground v.1.15,2013-03-10 01:17:00,
2013-03-09 20:22:00,53.1,30.0,30.26,NW,308,1.0,2.0,41,0.00,,,0.00,Wunderground v.1.15,2013-03-10 01:22:00,
2013-03-09 20:28:00,53.0,29.9,30.27,NNE,15,2.0,2.0,41,0.00,,,0.00,Wunderground v.1.15,2013-03-10 01:28:00,
2013-03-09 20:33:00,53.0,29.3,30.27,North,350,2.0,3.0,40,0.00,,,0.00,Wunderground v.1.15,2013-03-10 01:33:00,
2013-03-09 20:39:00,52.8,29.7,30.27,WNW,291,2.0,3.0,41,0.00,,,0.00,Wunderground v.1.15,2013-03-10 01:39:00,
2013-03-09 20:44:00,52.9,29.2,30.28,NW,312,2.0,16.0,40,0.00,,,0.00,Wunderground v.1.15,2013-03-10 01:44:00,
2013-03-09 20:50:00,52.9,29.8,30.28,WSW,240,2.0,16.0,41,0.00,,,0.00,Wunderground v.1.15,2013-03-10 01:50:00,
2013-03-09 20:55:00,52.9,29.8,30.28,WSW,255,1.0,16.0,41,0.00,,,0.00,Wunderground v.1.15,2013-03-10 01:55:00,
2013-03-09 21:00:00,52.9,29.8,30.28,ENE,75,1.0,1.0,41,0.00,,,0.00,Wunderground v.1.15,2013-03-10 02:00:00,
2013-03-09 21:06:00,52.9,29.8,30.28,SW,214,2.0,3.0,41,0.00,,,0.00,Wunderground v.1.15,2013-03-10 02:06:00,
2013-03-09 21:12:00,52.7,30.2,30.28,West,262,2.0,3.0,42,0.00,,,0.00,Wunderground v.1.15,2013-03-10 02:12:00,
2013-03-09 21:18:00,52.7,29.6,30.28,ENE,57,1.0,5.0,41,0.00,,,0.00,Wunderground v.1.15,2013-03-10 02:18:00,
2013-03-09 21:24:00,52.6,30.1,30.29,WSW,257,2.0,6.0,42,0.00,,,0.00,Wunderground v.1.15,2013-03-10 02:24:00,
2013-03-09 21:29:00,52.7,29.6,30.29,South,174,3.0,6.0,41,0.00,,,0.00,Wunderground v.1.15,2013-03-10 02:29:00,
2013-03-09 21:35:00,52.8,30.3,30.29,West,274,3.0,5.0,42,0.00,,,0.00,Wunderground v.1.15,2013-03-10 02:35:00,
2013-03-09 21:40:00,52.7,30.2,30.29,WSW,248,2.0,2.0,42,0.00,,,0.00,Wunderground v.1.15,2013-03-10 02:40:00,
2013-03-09 21:46:00,52.6,30.1,30.29,SSW,194,1.0,3.0,42,0.00,,,0.00,Wunderground v.1.15,2013-03-10 02:46:00,
2013-03-09 21:51:00,52.3,31.0,30.30,NE,41,2.0,4.0,44,0.00,,,0.00,Wunderground v.1.15,2013-03-10 02:51:00,
2013-03-09 21:57:00,52.1,30.8,30.30,NW,315,2.0,4.0,44,0.00,,,0.00,Wunderground v.1.15,2013-03-10 02:57:00,
2013-03-09 22:03:00,51.7,30.5,30.30,SW,219,1.0,3.0,44,0.00,,,0.00,Wunderground v.1.15,2013-03-10 03:03:00,
2013-03-09 22:08:00,51.7,29.9,30.30,NNE,15,1.0,3.0,43,0.00,,,0.00,Wunderground v.1.15,2013-03-10 03:08:00,
2013-03-09 22:13:00,51.8,31.7,30.30,SSW,195,1.0,3.0,46,0.00,,,0.00,Wunderground v.1.15,2013-03-10 03:13:00,
2013-03-09 22:19:00,51.4,30.7,30.30,SSW,203,1.0,4.0,45,0.00,,,0.00,Wunderground v.1.15,2013-03-10 03:19:00,
2013-03-09 22:24:00,51.6,30.4,30.30,West,259,1.0,3.0,44,0.00,,,0.00,Wunderground v.1.15,2013-03-10 03:24:00,
2013-03-09 22:29:00,51.4,30.7,30.30,NE,38,1.0,3.0,45,0.00,,,0.00,Wunderground v.1.15,2013-03-10 03:29:00,
2013-03-09 22:35:00,51.4,30.2,30.30,ENE,71,1.0,5.0,44,0.00,,,0.00,Wunderground v.1.15,2013-03-10 03:35:00,
2013-03-09 22:41:00,51.4,30.7,30.30,NNW,330,1.0,3.0,45,0.00,,,0.00,Wunderground v.1.15,2013-03-10 03:41:00,
2013-03-09 22:46:00,51.1,30.5,30.30,NW,316,2.0,3.0,45,0.00,,,0.00,Wunderground v.1.15,2013-03-10 03:46:00,
2013-03-09 22:52:00,50.9,30.3,30.30,NW,322,2.0,3.0,45,0.00,,,0.00,Wunderground v.1.15,2013-03-10 03:52:00,
2013-03-09 22:57:00,50.6,31.1,30.29,NNW,330,1.0,3.0,47,0.00,,,0.00,Wunderground v.1.15,2013-03-10 03:57:00,
2013-03-09 23:03:00,50.4,30.9,30.29,SW,226,1.0,3.0,47,0.00,,,0.00,Wunderground v.1.15,2013-03-10 04:03:00,
2013-03-09 23:09:00,50.2,30.7,30.29,WNW,289,2.0,3.0,47,0.00,,,0.00,Wunderground v.1.15,2013-03-10 04:09:00,
2013-03-09 23:14:00,49.7,30.8,30.29,NW,313,1.0,5.0,48,0.00,,,0.00,Wunderground v.1.15,2013-03-10 04:14:00,
2013-03-09 23:20:00,49.5,30.6,30.29,NNW,331,1.0,1.0,48,0.00,,,0.00,Wunderground v.1.15,2013-03-10 04:20:00,
2013-03-09 23:25:00,49.6,30.7,30.29,NE,38,1.0,3.0,48,0.00,,,0.00,Wunderground v.1.15,2013-03-10 04:25:00,
2013-03-09 23:31:00,49.5,31.1,30.29,WNW,284,1.0,1.0,49,0.00,,,0.00,Wunderground v.1.15,2013-03-10 04:31:00,
2013-03-09 23:36:00,49.2,30.8,30.28,NNW,328,1.0,3.0,49,0.00,,,0.00,Wunderground v.1.15,2013-03-10 04:36:00,
2013-03-09 23:42:00,49.2,30.8,30.28,NNE,15,1.0,4.0,49,0.00,,,0.00,Wunderground v.1.15,2013-03-10 04:42:00,
2013-03-09 23:47:00,49.1,30.0,30.28,WNW,288,0.0,3.0,49,0.00,,,0.00,weatherlink.com 1.10,2013-03-10 04:47:00,
2013-03-09 23:53:00,49.0,30.7,30.28,WNW,285,1.0,4.0,49,0.00,,,0.00,Wunderground v.1.15,2013-03-10 04:53:00,
2013-03-09 23:58:00,48.8,31.0,30.28,NW,304,1.0,4.0,50,0.00,,,0.00,Wunderground v.1.15,2013-03-10 04:58:00,